sensor_id;sensor_type;location;lat;lon;timestamp;P1;durP1;ratioP1;P2;durP2;ratioP2
17953;SDS011;9102;53.548;9.926;2023-07-13T00:01:57;5.15;;;3.65;;
17953;SDS011;9102;53.548;9.926;2023-07-13T00:04:24;5.38;;;3.97;;
17953;SDS011;9102;53.548;9.926;2023-07-13T00:06:52;6.60;;;3.95;;
17953;SDS011;9102;53.548;9.926;2023-07-13T00:09:21;5.68;;;3.75;;
17953;SDS011;9102;53.548;9.926;2023-07-13T00:11:50;7.03;;;3.47;;
17953;SDS011;9102;53.548;9.926;2023-07-13T00:14:19;6.28;;;3.40;;
17953;SDS011;9102;53.548;9.926;2023-07-13T00:16:46;8.20;;;3.70;;
17953;SDS011;9102;53.548;9.926;2023-07-13T00:19:13;5.40;;;3.88;;
17953;SDS011;9102;53.548;9.926;2023-07-13T00:21:40;5.07;;;3.60;;
17953;SDS011;9102;53.548;9.926;2023-07-13T00:24:10;6.30;;;3.53;;
17953;SDS011;9102;53.548;9.926;2023-07-13T00:26:41;10.98;;;4.28;;
17953;SDS011;9102;53.548;9.926;2023-07-13T00:29:10;6.22;;;3.65;;
17953;SDS011;9102;53.548;9.926;2023-07-13T00:31:37;7.22;;;3.15;;
17953;SDS011;9102;53.548;9.926;2023-07-13T00:34:04;4.93;;;3.25;;
17953;SDS011;9102;53.548;9.926;2023-07-13T00:36:32;8.05;;;3.45;;
17953;SDS011;9102;53.548;9.926;2023-07-13T00:38:59;6.78;;;3.15;;
17953;SDS011;9102;53.548;9.926;2023-07-13T00:41:26;4.88;;;3.30;;
17953;SDS011;9102;53.548;9.926;2023-07-13T00:43:54;9.88;;;3.60;;
17953;SDS011;9102;53.548;9.926;2023-07-13T00:46:22;6.03;;;3.05;;
17953;SDS011;9102;53.548;9.926;2023-07-13T00:48:53;8.90;;;3.58;;
17953;SDS011;9102;53.548;9.926;2023-07-13T00:51:23;7.65;;;3.72;;
17953;SDS011;9102;53.548;9.926;2023-07-13T00:53:57;4.75;;;3.05;;
17953;SDS011;9102;53.548;9.926;2023-07-13T00:56:26;8.25;;;4.03;;
17953;SDS011;9102;53.548;9.926;2023-07-13T00:58:56;7.15;;;3.22;;
17953;SDS011;9102;53.548;9.926;2023-07-13T01:01:25;7.47;;;3.47;;
17953;SDS011;9102;53.548;9.926;2023-07-13T01:03:52;7.13;;;3.45;;
17953;SDS011;9102;53.548;9.926;2023-07-13T01:06:19;7.43;;;3.53;;
17953;SDS011;9102;53.548;9.926;2023-07-13T01:08:46;7.05;;;3.80;;
17953;SDS011;9102;53.548;9.926;2023-07-13T01:11:13;7.13;;;3.67;;
17953;SDS011;9102;53.548;9.926;2023-07-13T01:13:46;8.88;;;4.35;;
17953;SDS011;9102;53.548;9.926;2023-07-13T01:16:17;6.72;;;4.07;;
17953;SDS011;9102;53.548;9.926;2023-07-13T01:18:48;5.60;;;4.05;;
17953;SDS011;9102;53.548;9.926;2023-07-13T01:21:16;7.00;;;3.50;;
17953;SDS011;9102;53.548;9.926;2023-07-13T01:23:43;6.78;;;4.55;;
17953;SDS011;9102;53.548;9.926;2023-07-13T01:26:11;8.70;;;4.40;;
17953;SDS011;9102;53.548;9.926;2023-07-13T01:28:38;7.72;;;4.60;;
17953;SDS011;9102;53.548;9.926;2023-07-13T01:31:05;8.35;;;5.03;;
17953;SDS011;9102;53.548;9.926;2023-07-13T01:33:33;7.70;;;5.13;;
17953;SDS011;9102;53.548;9.926;2023-07-13T01:36:00;12.98;;;5.20;;
17953;SDS011;9102;53.548;9.926;2023-07-13T01:38:28;11.73;;;5.43;;
17953;SDS011;9102;53.548;9.926;2023-07-13T01:40:55;12.95;;;5.40;;
17953;SDS011;9102;53.548;9.926;2023-07-13T01:43:22;12.55;;;6.15;;
17953;SDS011;9102;53.548;9.926;2023-07-13T01:45:49;9.63;;;5.22;;
17953;SDS011;9102;53.548;9.926;2023-07-13T01:48:16;10.88;;;6.13;;
17953;SDS011;9102;53.548;9.926;2023-07-13T01:50:43;10.75;;;6.38;;
17953;SDS011;9102;53.548;9.926;2023-07-13T01:53:13;9.50;;;6.38;;
17953;SDS011;9102;53.548;9.926;2023-07-13T01:55:42;12.82;;;7.03;;
17953;SDS011;9102;53.548;9.926;2023-07-13T01:58:09;11.32;;;6.05;;
17953;SDS011;9102;53.548;9.926;2023-07-13T02:00:36;10.07;;;6.13;;
17953;SDS011;9102;53.548;9.926;2023-07-13T02:06:25;11.90;;;6.20;;
17953;SDS011;9102;53.548;9.926;2023-07-13T02:08:52;17.38;;;7.88;;
17953;SDS011;9102;53.548;9.926;2023-07-13T02:11:22;14.18;;;7.90;;
17953;SDS011;9102;53.548;9.926;2023-07-13T02:13:49;13.02;;;7.78;;
17953;SDS011;9102;53.548;9.926;2023-07-13T02:16:17;20.02;;;8.98;;
17953;SDS011;9102;53.548;9.926;2023-07-13T02:18:43;17.33;;;7.50;;
17953;SDS011;9102;53.548;9.926;2023-07-13T02:21:10;14.70;;;6.85;;
17953;SDS011;9102;53.548;9.926;2023-07-13T02:23:37;10.27;;;5.82;;
17953;SDS011;9102;53.548;9.926;2023-07-13T02:26:04;10.00;;;6.00;;
17953;SDS011;9102;53.548;9.926;2023-07-13T02:28:32;10.23;;;5.80;;
17953;SDS011;9102;53.548;9.926;2023-07-13T02:31:04;10.48;;;5.75;;
17953;SDS011;9102;53.548;9.926;2023-07-13T02:33:31;10.68;;;4.88;;
17953;SDS011;9102;53.548;9.926;2023-07-13T02:35:58;10.93;;;5.82;;
17953;SDS011;9102;53.548;9.926;2023-07-13T02:38:25;13.65;;;6.60;;
17953;SDS011;9102;53.548;9.926;2023-07-13T02:40:52;8.73;;;6.00;;
17953;SDS011;9102;53.548;9.926;2023-07-13T02:43:19;15.60;;;5.95;;
17953;SDS011;9102;53.548;9.926;2023-07-13T02:45:47;10.15;;;5.55;;
17953;SDS011;9102;53.548;9.926;2023-07-13T02:48:14;18.98;;;9.82;;
17953;SDS011;9102;53.548;9.926;2023-07-13T02:50:41;13.30;;;6.65;;
17953;SDS011;9102;53.548;9.926;2023-07-13T02:53:08;12.77;;;6.30;;
17953;SDS011;9102;53.548;9.926;2023-07-13T02:55:34;8.55;;;5.35;;
17953;SDS011;9102;53.548;9.926;2023-07-13T02:58:01;8.55;;;5.00;;
17953;SDS011;9102;53.548;9.926;2023-07-13T03:00:28;6.45;;;4.93;;
17953;SDS011;9102;53.548;9.926;2023-07-13T03:02:57;10.32;;;5.30;;
17953;SDS011;9102;53.548;9.926;2023-07-13T03:05:24;9.57;;;4.90;;
17953;SDS011;9102;53.548;9.926;2023-07-13T03:07:50;7.78;;;5.53;;
17953;SDS011;9102;53.548;9.926;2023-07-13T03:10:19;10.90;;;5.30;;
17953;SDS011;9102;53.548;9.926;2023-07-13T03:12:45;12.50;;;5.13;;
17953;SDS011;9102;53.548;9.926;2023-07-13T03:15:12;10.15;;;4.80;;
17953;SDS011;9102;53.548;9.926;2023-07-13T03:17:39;8.38;;;4.82;;
17953;SDS011;9102;53.548;9.926;2023-07-13T03:20:09;10.65;;;5.22;;
17953;SDS011;9102;53.548;9.926;2023-07-13T03:22:37;8.10;;;5.05;;
17953;SDS011;9102;53.548;9.926;2023-07-13T03:25:05;7.70;;;4.90;;
17953;SDS011;9102;53.548;9.926;2023-07-13T03:27:32;8.00;;;4.45;;
17953;SDS011;9102;53.548;9.926;2023-07-13T03:29:59;10.60;;;5.18;;
17953;SDS011;9102;53.548;9.926;2023-07-13T03:32:26;8.95;;;5.00;;
17953;SDS011;9102;53.548;9.926;2023-07-13T03:34:53;7.95;;;4.43;;
17953;SDS011;9102;53.548;9.926;2023-07-13T03:37:21;11.90;;;5.82;;
17953;SDS011;9102;53.548;9.926;2023-07-13T03:39:49;9.02;;;4.93;;
17953;SDS011;9102;53.548;9.926;2023-07-13T03:42:16;8.93;;;5.07;;
17953;SDS011;9102;53.548;9.926;2023-07-13T03:44:42;7.10;;;4.40;;
17953;SDS011;9102;53.548;9.926;2023-07-13T03:47:14;9.20;;;4.28;;
17953;SDS011;9102;53.548;9.926;2023-07-13T03:49:41;7.95;;;4.38;;
17953;SDS011;9102;53.548;9.926;2023-07-13T03:52:08;11.40;;;5.07;;
17953;SDS011;9102;53.548;9.926;2023-07-13T03:54:36;11.48;;;4.22;;
17953;SDS011;9102;53.548;9.926;2023-07-13T03:57:04;13.18;;;4.68;;
17953;SDS011;9102;53.548;9.926;2023-07-13T03:59:32;12.13;;;4.32;;
17953;SDS011;9102;53.548;9.926;2023-07-13T04:01:59;10.55;;;3.72;;
17953;SDS011;9102;53.548;9.926;2023-07-13T04:07:48;10.02;;;3.67;;
17953;SDS011;9102;53.548;9.926;2023-07-13T04:10:17;6.97;;;2.92;;
17953;SDS011;9102;53.548;9.926;2023-07-13T04:12:43;6.97;;;3.30;;
17953;SDS011;9102;53.548;9.926;2023-07-13T04:18:51;8.57;;;3.50;;
17953;SDS011;9102;53.548;9.926;2023-07-13T04:21:20;10.25;;;3.70;;
17953;SDS011;9102;53.548;9.926;2023-07-13T04:23:47;11.60;;;4.43;;
17953;SDS011;9102;53.548;9.926;2023-07-13T04:26:16;9.48;;;3.95;;
17953;SDS011;9102;53.548;9.926;2023-07-13T04:28:46;10.90;;;4.18;;
17953;SDS011;9102;53.548;9.926;2023-07-13T04:31:13;15.43;;;5.00;;
17953;SDS011;9102;53.548;9.926;2023-07-13T04:33:40;8.23;;;4.40;;
17953;SDS011;9102;53.548;9.926;2023-07-13T04:36:08;14.27;;;4.72;;
17953;SDS011;9102;53.548;9.926;2023-07-13T04:38:35;12.65;;;4.32;;
17953;SDS011;9102;53.548;9.926;2023-07-13T04:41:02;8.32;;;3.53;;
17953;SDS011;9102;53.548;9.926;2023-07-13T04:43:32;10.23;;;3.35;;
17953;SDS011;9102;53.548;9.926;2023-07-13T04:46:02;12.70;;;3.40;;
17953;SDS011;9102;53.548;9.926;2023-07-13T04:48:30;7.47;;;2.95;;
17953;SDS011;9102;53.548;9.926;2023-07-13T04:50:57;9.20;;;3.90;;
17953;SDS011;9102;53.548;9.926;2023-07-13T04:53:25;6.47;;;3.22;;
17953;SDS011;9102;53.548;9.926;2023-07-13T04:55:52;10.13;;;4.20;;
17953;SDS011;9102;53.548;9.926;2023-07-13T04:58:19;6.80;;;3.00;;
17953;SDS011;9102;53.548;9.926;2023-07-13T05:00:49;7.43;;;3.63;;
17953;SDS011;9102;53.548;9.926;2023-07-13T05:03:16;6.70;;;3.05;;
17953;SDS011;9102;53.548;9.926;2023-07-13T05:05:43;6.78;;;3.05;;
17953;SDS011;9102;53.548;9.926;2023-07-13T05:08:20;6.93;;;3.15;;
17953;SDS011;9102;53.548;9.926;2023-07-13T05:10:47;7.22;;;3.72;;
17953;SDS011;9102;53.548;9.926;2023-07-13T05:13:14;9.98;;;3.30;;
17953;SDS011;9102;53.548;9.926;2023-07-13T05:15:40;8.82;;;3.25;;
17953;SDS011;9102;53.548;9.926;2023-07-13T05:18:08;9.50;;;4.32;;
17953;SDS011;9102;53.548;9.926;2023-07-13T05:20:35;11.02;;;3.33;;
17953;SDS011;9102;53.548;9.926;2023-07-13T05:23:02;6.93;;;3.15;;
17953;SDS011;9102;53.548;9.926;2023-07-13T05:25:29;8.60;;;3.25;;
17953;SDS011;9102;53.548;9.926;2023-07-13T05:27:56;9.38;;;3.63;;
17953;SDS011;9102;53.548;9.926;2023-07-13T05:30:23;12.23;;;3.42;;
17953;SDS011;9102;53.548;9.926;2023-07-13T05:32:50;8.13;;;3.75;;
17953;SDS011;9102;53.548;9.926;2023-07-13T05:35:18;8.63;;;4.10;;
17953;SDS011;9102;53.548;9.926;2023-07-13T05:37:45;10.05;;;3.58;;
17953;SDS011;9102;53.548;9.926;2023-07-13T05:40:11;10.25;;;3.75;;
17953;SDS011;9102;53.548;9.926;2023-07-13T05:42:38;11.68;;;4.20;;
17953;SDS011;9102;53.548;9.926;2023-07-13T05:48:27;13.98;;;4.78;;
17953;SDS011;9102;53.548;9.926;2023-07-13T05:50:55;13.25;;;3.47;;
17953;SDS011;9102;53.548;9.926;2023-07-13T05:53:22;10.18;;;3.30;;
17953;SDS011;9102;53.548;9.926;2023-07-13T05:55:49;8.52;;;3.92;;
17953;SDS011;9102;53.548;9.926;2023-07-13T05:58:18;11.85;;;4.97;;
17953;SDS011;9102;53.548;9.926;2023-07-13T06:00:45;12.55;;;3.88;;
17953;SDS011;9102;53.548;9.926;2023-07-13T06:03:13;13.73;;;4.88;;
17953;SDS011;9102;53.548;9.926;2023-07-13T06:05:41;9.00;;;3.83;;
17953;SDS011;9102;53.548;9.926;2023-07-13T06:08:09;14.27;;;4.32;;
17953;SDS011;9102;53.548;9.926;2023-07-13T06:10:36;7.43;;;3.58;;
17953;SDS011;9102;53.548;9.926;2023-07-13T06:13:03;12.02;;;3.75;;
17953;SDS011;9102;53.548;9.926;2023-07-13T06:15:30;9.48;;;3.47;;
17953;SDS011;9102;53.548;9.926;2023-07-13T06:17:57;16.55;;;3.85;;
17953;SDS011;9102;53.548;9.926;2023-07-13T06:20:23;13.73;;;3.60;;
17953;SDS011;9102;53.548;9.926;2023-07-13T06:22:50;11.02;;;3.70;;
17953;SDS011;9102;53.548;9.926;2023-07-13T06:25:18;13.27;;;3.83;;
17953;SDS011;9102;53.548;9.926;2023-07-13T06:27:45;15.82;;;3.30;;
17953;SDS011;9102;53.548;9.926;2023-07-13T06:30:12;14.25;;;3.65;;
17953;SDS011;9102;53.548;9.926;2023-07-13T06:32:39;13.88;;;3.60;;
17953;SDS011;9102;53.548;9.926;2023-07-13T06:35:06;9.48;;;3.17;;
17953;SDS011;9102;53.548;9.926;2023-07-13T06:37:33;12.23;;;3.70;;
17953;SDS011;9102;53.548;9.926;2023-07-13T06:40:00;13.15;;;4.43;;
17953;SDS011;9102;53.548;9.926;2023-07-13T06:42:28;14.73;;;3.22;;
17953;SDS011;9102;53.548;9.926;2023-07-13T06:44:55;13.02;;;3.22;;
17953;SDS011;9102;53.548;9.926;2023-07-13T06:47:22;9.20;;;2.90;;
17953;SDS011;9102;53.548;9.926;2023-07-13T06:49:48;11.27;;;3.47;;
17953;SDS011;9102;53.548;9.926;2023-07-13T06:52:15;13.30;;;3.70;;
17953;SDS011;9102;53.548;9.926;2023-07-13T06:54:42;10.50;;;3.05;;
17953;SDS011;9102;53.548;9.926;2023-07-13T06:57:09;15.77;;;3.53;;
17953;SDS011;9102;53.548;9.926;2023-07-13T06:59:37;12.57;;;3.53;;
17953;SDS011;9102;53.548;9.926;2023-07-13T07:02:04;12.90;;;2.92;;
17953;SDS011;9102;53.548;9.926;2023-07-13T07:04:32;11.95;;;3.20;;
17953;SDS011;9102;53.548;9.926;2023-07-13T07:06:58;12.13;;;3.22;;
17953;SDS011;9102;53.548;9.926;2023-07-13T07:09:25;19.67;;;3.33;;
17953;SDS011;9102;53.548;9.926;2023-07-13T07:11:54;14.10;;;3.78;;
17953;SDS011;9102;53.548;9.926;2023-07-13T07:14:21;9.43;;;2.78;;
17953;SDS011;9102;53.548;9.926;2023-07-13T07:16:49;13.23;;;3.13;;
17953;SDS011;9102;53.548;9.926;2023-07-13T07:19:16;11.75;;;2.70;;
17953;SDS011;9102;53.548;9.926;2023-07-13T07:21:43;5.85;;;2.45;;
17953;SDS011;9102;53.548;9.926;2023-07-13T07:24:09;11.55;;;4.60;;
17953;SDS011;9102;53.548;9.926;2023-07-13T07:26:36;10.02;;;2.67;;
17953;SDS011;9102;53.548;9.926;2023-07-13T07:29:03;11.52;;;3.50;;
17953;SDS011;9102;53.548;9.926;2023-07-13T07:31:30;7.68;;;2.63;;
17953;SDS011;9102;53.548;9.926;2023-07-13T07:33:58;8.63;;;2.53;;
17953;SDS011;9102;53.548;9.926;2023-07-13T07:36:25;10.93;;;2.85;;
17953;SDS011;9102;53.548;9.926;2023-07-13T07:38:52;9.63;;;2.95;;
17953;SDS011;9102;53.548;9.926;2023-07-13T07:41:19;9.38;;;2.85;;
17953;SDS011;9102;53.548;9.926;2023-07-13T07:43:46;7.40;;;2.78;;
17953;SDS011;9102;53.548;9.926;2023-07-13T07:46:13;13.02;;;2.80;;
17953;SDS011;9102;53.548;9.926;2023-07-13T07:48:40;10.25;;;2.40;;
17953;SDS011;9102;53.548;9.926;2023-07-13T07:51:08;10.55;;;2.53;;
17953;SDS011;9102;53.548;9.926;2023-07-13T07:53:35;14.13;;;3.38;;
17953;SDS011;9102;53.548;9.926;2023-07-13T07:56:01;7.88;;;2.30;;
17953;SDS011;9102;53.548;9.926;2023-07-13T07:58:28;16.80;;;3.10;;
17953;SDS011;9102;53.548;9.926;2023-07-13T08:01:01;15.98;;;2.83;;
17953;SDS011;9102;53.548;9.926;2023-07-13T08:03:29;10.52;;;2.63;;
17953;SDS011;9102;53.548;9.926;2023-07-13T08:05:55;9.98;;;2.90;;
17953;SDS011;9102;53.548;9.926;2023-07-13T08:08:24;14.13;;;3.38;;
17953;SDS011;9102;53.548;9.926;2023-07-13T08:10:51;8.70;;;2.65;;
17953;SDS011;9102;53.548;9.926;2023-07-13T08:13:17;11.85;;;2.67;;
17953;SDS011;9102;53.548;9.926;2023-07-13T08:15:44;12.13;;;2.42;;
17953;SDS011;9102;53.548;9.926;2023-07-13T08:18:12;11.57;;;2.92;;
17953;SDS011;9102;53.548;9.926;2023-07-13T08:20:40;11.93;;;2.60;;
17953;SDS011;9102;53.548;9.926;2023-07-13T08:23:10;8.95;;;2.40;;
17953;SDS011;9102;53.548;9.926;2023-07-13T08:25:40;17.33;;;2.75;;
17953;SDS011;9102;53.548;9.926;2023-07-13T08:28:07;9.85;;;2.70;;
17953;SDS011;9102;53.548;9.926;2023-07-13T08:30:34;13.40;;;3.28;;
17953;SDS011;9102;53.548;9.926;2023-07-13T08:33:01;10.13;;;2.63;;
17953;SDS011;9102;53.548;9.926;2023-07-13T08:35:28;9.45;;;2.42;;
17953;SDS011;9102;53.548;9.926;2023-07-13T08:37:55;10.68;;;2.80;;
17953;SDS011;9102;53.548;9.926;2023-07-13T08:40:23;9.00;;;2.10;;
17953;SDS011;9102;53.548;9.926;2023-07-13T08:42:55;10.23;;;2.40;;
17953;SDS011;9102;53.548;9.926;2023-07-13T08:45:25;10.40;;;2.30;;
17953;SDS011;9102;53.548;9.926;2023-07-13T08:48:01;13.63;;;2.30;;
17953;SDS011;9102;53.548;9.926;2023-07-13T08:50:31;8.88;;;2.42;;
17953;SDS011;9102;53.548;9.926;2023-07-13T08:53:01;15.15;;;2.35;;
17953;SDS011;9102;53.548;9.926;2023-07-13T08:55:31;8.55;;;2.25;;
17953;SDS011;9102;53.548;9.926;2023-07-13T08:58:05;14.30;;;3.10;;
17953;SDS011;9102;53.548;9.926;2023-07-13T09:00:39;9.75;;;2.22;;
17953;SDS011;9102;53.548;9.926;2023-07-13T09:03:16;10.43;;;2.72;;
17953;SDS011;9102;53.548;9.926;2023-07-13T09:05:49;7.53;;;1.85;;
17953;SDS011;9102;53.548;9.926;2023-07-13T09:08:27;9.88;;;2.42;;
17953;SDS011;9102;53.548;9.926;2023-07-13T09:11:06;7.63;;;2.20;;
17953;SDS011;9102;53.548;9.926;2023-07-13T09:13:45;10.73;;;2.47;;
17953;SDS011;9102;53.548;9.926;2023-07-13T09:16:21;6.43;;;2.05;;
17953;SDS011;9102;53.548;9.926;2023-07-13T09:18:49;6.80;;;2.35;;
17953;SDS011;9102;53.548;9.926;2023-07-13T09:21:22;5.20;;;1.80;;
17953;SDS011;9102;53.548;9.926;2023-07-13T09:23:52;7.65;;;2.10;;
17953;SDS011;9102;53.548;9.926;2023-07-13T09:26:22;7.78;;;2.30;;
17953;SDS011;9102;53.548;9.926;2023-07-13T09:28:53;7.30;;;1.90;;
17953;SDS011;9102;53.548;9.926;2023-07-13T09:31:27;8.18;;;2.25;;
17953;SDS011;9102;53.548;9.926;2023-07-13T09:33:59;6.68;;;2.17;;
17953;SDS011;9102;53.548;9.926;2023-07-13T09:36:28;8.38;;;2.03;;
17953;SDS011;9102;53.548;9.926;2023-07-13T09:38:58;10.57;;;2.70;;
17953;SDS011;9102;53.548;9.926;2023-07-13T09:41:31;7.40;;;2.30;;
17953;SDS011;9102;53.548;9.926;2023-07-13T09:44:09;7.10;;;2.35;;
17953;SDS011;9102;53.548;9.926;2023-07-13T09:46:37;7.20;;;2.30;;
17953;SDS011;9102;53.548;9.926;2023-07-13T09:49:05;7.10;;;2.65;;
17953;SDS011;9102;53.548;9.926;2023-07-13T09:51:36;5.90;;;2.08;;
17953;SDS011;9102;53.548;9.926;2023-07-13T09:54:03;11.25;;;2.40;;
17953;SDS011;9102;53.548;9.926;2023-07-13T09:56:30;9.80;;;2.10;;
17953;SDS011;9102;53.548;9.926;2023-07-13T09:58:59;6.95;;;2.00;;
17953;SDS011;9102;53.548;9.926;2023-07-13T10:01:34;8.90;;;2.10;;
17953;SDS011;9102;53.548;9.926;2023-07-13T10:04:03;6.78;;;1.98;;
17953;SDS011;9102;53.548;9.926;2023-07-13T10:06:38;9.30;;;3.35;;
17953;SDS011;9102;53.548;9.926;2023-07-13T10:09:08;7.10;;;2.50;;
17953;SDS011;9102;53.548;9.926;2023-07-13T10:11:35;8.13;;;2.05;;
17953;SDS011;9102;53.548;9.926;2023-07-13T10:14:09;10.98;;;3.42;;
17953;SDS011;9102;53.548;9.926;2023-07-13T10:16:40;6.70;;;2.30;;
17953;SDS011;9102;53.548;9.926;2023-07-13T10:19:10;5.65;;;2.72;;
17953;SDS011;9102;53.548;9.926;2023-07-13T10:21:43;4.88;;;1.92;;
17953;SDS011;9102;53.548;9.926;2023-07-13T10:24:21;4.70;;;1.70;;
17953;SDS011;9102;53.548;9.926;2023-07-13T10:26:52;6.07;;;1.90;;
17953;SDS011;9102;53.548;9.926;2023-07-13T10:29:22;9.15;;;2.10;;
17953;SDS011;9102;53.548;9.926;2023-07-13T10:31:53;5.80;;;1.83;;
17953;SDS011;9102;53.548;9.926;2023-07-13T10:34:22;7.75;;;2.03;;
17953;SDS011;9102;53.548;9.926;2023-07-13T10:36:49;11.13;;;3.63;;
17953;SDS011;9102;53.548;9.926;2023-07-13T10:39:18;7.03;;;2.53;;
17953;SDS011;9102;53.548;9.926;2023-07-13T10:41:49;11.63;;;5.88;;
17953;SDS011;9102;53.548;9.926;2023-07-13T10:44:21;6.50;;;1.98;;
17953;SDS011;9102;53.548;9.926;2023-07-13T10:46:58;4.45;;;1.80;;
17953;SDS011;9102;53.548;9.926;2023-07-13T10:49:27;4.40;;;1.50;;
17953;SDS011;9102;53.548;9.926;2023-07-13T10:51:56;9.88;;;6.13;;
17953;SDS011;9102;53.548;9.926;2023-07-13T10:54:26;10.98;;;3.92;;
17953;SDS011;9102;53.548;9.926;2023-07-13T10:57:06;8.10;;;1.95;;
17953;SDS011;9102;53.548;9.926;2023-07-13T10:59:41;7.38;;;2.13;;
17953;SDS011;9102;53.548;9.926;2023-07-13T11:02:12;4.13;;;1.50;;
17953;SDS011;9102;53.548;9.926;2023-07-13T11:04:48;7.90;;;1.95;;
17953;SDS011;9102;53.548;9.926;2023-07-13T11:07:19;6.18;;;1.92;;
17953;SDS011;9102;53.548;9.926;2023-07-13T11:09:49;7.45;;;1.73;;
17953;SDS011;9102;53.548;9.926;2023-07-13T11:12:27;6.43;;;2.00;;
17953;SDS011;9102;53.548;9.926;2023-07-13T11:15:10;5.22;;;1.50;;
17953;SDS011;9102;53.548;9.926;2023-07-13T11:17:49;4.10;;;1.52;;
17953;SDS011;9102;53.548;9.926;2023-07-13T11:20:31;4.88;;;1.40;;
17953;SDS011;9102;53.548;9.926;2023-07-13T11:25:56;6.35;;;1.45;;
17953;SDS011;9102;53.548;9.926;2023-07-13T11:28:24;8.65;;;1.75;;
17953;SDS011;9102;53.548;9.926;2023-07-13T11:33:48;5.05;;;1.60;;
17953;SDS011;9102;53.548;9.926;2023-07-13T11:36:18;7.25;;;1.90;;
17953;SDS011;9102;53.548;9.926;2023-07-13T11:38:49;5.95;;;1.40;;
17953;SDS011;9102;53.548;9.926;2023-07-13T11:41:26;6.72;;;2.05;;
17953;SDS011;9102;53.548;9.926;2023-07-13T11:44:01;4.18;;;1.50;;
17953;SDS011;9102;53.548;9.926;2023-07-13T11:46:31;4.75;;;1.55;;
17953;SDS011;9102;53.548;9.926;2023-07-13T11:49:00;9.93;;;3.80;;
17953;SDS011;9102;53.548;9.926;2023-07-13T11:51:27;6.50;;;1.73;;
17953;SDS011;9102;53.548;9.926;2023-07-13T11:53:57;9.23;;;1.92;;
17953;SDS011;9102;53.548;9.926;2023-07-13T11:56:31;4.85;;;1.60;;
17953;SDS011;9102;53.548;9.926;2023-07-13T11:59:03;4.55;;;1.55;;
17953;SDS011;9102;53.548;9.926;2023-07-13T12:01:32;4.15;;;1.50;;
17953;SDS011;9102;53.548;9.926;2023-07-13T12:04:13;3.92;;;1.65;;
17953;SDS011;9102;53.548;9.926;2023-07-13T12:06:48;6.97;;;1.88;;
17953;SDS011;9102;53.548;9.926;2023-07-13T12:09:21;3.58;;;1.33;;
17953;SDS011;9102;53.548;9.926;2023-07-13T12:11:50;3.45;;;1.30;;
17953;SDS011;9102;53.548;9.926;2023-07-13T12:14:18;6.03;;;1.50;;
17953;SDS011;9102;53.548;9.926;2023-07-13T12:16:45;7.55;;;1.50;;
17953;SDS011;9102;53.548;9.926;2023-07-13T12:19:17;9.15;;;2.20;;
17953;SDS011;9102;53.548;9.926;2023-07-13T12:21:46;16.52;;;3.20;;
17953;SDS011;9102;53.548;9.926;2023-07-13T12:24:13;10.27;;;2.50;;
17953;SDS011;9102;53.548;9.926;2023-07-13T12:26:41;8.40;;;2.53;;
17953;SDS011;9102;53.548;9.926;2023-07-13T12:29:11;13.77;;;3.25;;
17953;SDS011;9102;53.548;9.926;2023-07-13T12:31:43;5.15;;;2.30;;
17953;SDS011;9102;53.548;9.926;2023-07-13T12:34:12;11.30;;;3.22;;
17953;SDS011;9102;53.548;9.926;2023-07-13T12:36:46;7.88;;;3.50;;
17953;SDS011;9102;53.548;9.926;2023-07-13T12:39:15;6.80;;;3.00;;
17953;SDS011;9102;53.548;9.926;2023-07-13T12:41:45;9.32;;;3.58;;
17953;SDS011;9102;53.548;9.926;2023-07-13T12:44:12;8.57;;;2.97;;
17953;SDS011;9102;53.548;9.926;2023-07-13T12:46:50;6.05;;;2.88;;
17953;SDS011;9102;53.548;9.926;2023-07-13T12:49:21;4.75;;;3.00;;
17953;SDS011;9102;53.548;9.926;2023-07-13T12:51:55;4.18;;;2.45;;
17953;SDS011;9102;53.548;9.926;2023-07-13T12:54:24;5.65;;;3.22;;
17953;SDS011;9102;53.548;9.926;2023-07-13T12:56:51;4.95;;;2.70;;
17953;SDS011;9102;53.548;9.926;2023-07-13T12:59:22;6.25;;;2.67;;
17953;SDS011;9102;53.548;9.926;2023-07-13T13:01:51;5.18;;;1.90;;
17953;SDS011;9102;53.548;9.926;2023-07-13T13:04:19;3.92;;;1.95;;
17953;SDS011;9102;53.548;9.926;2023-07-13T13:06:47;7.40;;;2.10;;
17953;SDS011;9102;53.548;9.926;2023-07-13T13:09:16;4.15;;;1.70;;
17953;SDS011;9102;53.548;9.926;2023-07-13T13:11:45;4.40;;;2.35;;
17953;SDS011;9102;53.548;9.926;2023-07-13T13:14:11;5.97;;;2.28;;
17953;SDS011;9102;53.548;9.926;2023-07-13T13:16:43;5.03;;;2.00;;
17953;SDS011;9102;53.548;9.926;2023-07-13T13:19:14;6.18;;;2.53;;
17953;SDS011;9102;53.548;9.926;2023-07-13T13:21:43;4.80;;;2.08;;
17953;SDS011;9102;53.548;9.926;2023-07-13T13:24:12;3.13;;;1.80;;
17953;SDS011;9102;53.548;9.926;2023-07-13T13:26:41;4.30;;;1.95;;
17953;SDS011;9102;53.548;9.926;2023-07-13T13:29:11;4.45;;;2.03;;
17953;SDS011;9102;53.548;9.926;2023-07-13T13:31:40;5.18;;;2.08;;
17953;SDS011;9102;53.548;9.926;2023-07-13T13:34:08;5.00;;;2.10;;
17953;SDS011;9102;53.548;9.926;2023-07-13T13:36:36;6.97;;;1.80;;
17953;SDS011;9102;53.548;9.926;2023-07-13T13:39:08;5.63;;;1.40;;
17953;SDS011;9102;53.548;9.926;2023-07-13T13:41:47;3.08;;;1.42;;
17953;SDS011;9102;53.548;9.926;2023-07-13T13:44:15;4.22;;;2.00;;
17953;SDS011;9102;53.548;9.926;2023-07-13T13:46:43;3.58;;;1.90;;
17953;SDS011;9102;53.548;9.926;2023-07-13T13:49:13;4.50;;;1.77;;
17953;SDS011;9102;53.548;9.926;2023-07-13T13:51:42;2.97;;;1.88;;
17953;SDS011;9102;53.548;9.926;2023-07-13T13:54:10;4.97;;;1.90;;
17953;SDS011;9102;53.548;9.926;2023-07-13T13:56:39;6.57;;;2.05;;
17953;SDS011;9102;53.548;9.926;2023-07-13T13:59:08;5.70;;;1.85;;
17953;SDS011;9102;53.548;9.926;2023-07-13T14:01:35;4.32;;;1.80;;
17953;SDS011;9102;53.548;9.926;2023-07-13T14:04:02;3.42;;;1.65;;
17953;SDS011;9102;53.548;9.926;2023-07-13T14:06:30;3.25;;;1.63;;
17953;SDS011;9102;53.548;9.926;2023-07-13T14:08:57;3.42;;;1.67;;
17953;SDS011;9102;53.548;9.926;2023-07-13T14:11:24;4.07;;;1.58;;
17953;SDS011;9102;53.548;9.926;2023-07-13T14:13:53;5.18;;;1.90;;
17953;SDS011;9102;53.548;9.926;2023-07-13T14:16:25;4.22;;;1.60;;
17953;SDS011;9102;53.548;9.926;2023-07-13T14:18:54;4.68;;;1.75;;
17953;SDS011;9102;53.548;9.926;2023-07-13T14:21:23;5.07;;;1.88;;
17953;SDS011;9102;53.548;9.926;2023-07-13T14:23:50;7.68;;;1.63;;
17953;SDS011;9102;53.548;9.926;2023-07-13T14:26:18;4.35;;;1.60;;
17953;SDS011;9102;53.548;9.926;2023-07-13T14:28:47;2.95;;;1.83;;
17953;SDS011;9102;53.548;9.926;2023-07-13T14:31:16;5.38;;;1.48;;
17953;SDS011;9102;53.548;9.926;2023-07-13T14:33:45;3.05;;;1.65;;
17953;SDS011;9102;53.548;9.926;2023-07-13T14:36:17;3.05;;;2.10;;
17953;SDS011;9102;53.548;9.926;2023-07-13T14:38:49;3.33;;;1.67;;
17953;SDS011;9102;53.548;9.926;2023-07-13T14:41:16;7.03;;;1.88;;
17953;SDS011;9102;53.548;9.926;2023-07-13T14:43:43;4.95;;;1.85;;
17953;SDS011;9102;53.548;9.926;2023-07-13T14:46:11;3.13;;;1.55;;
17953;SDS011;9102;53.548;9.926;2023-07-13T14:48:49;4.20;;;1.70;;
17953;SDS011;9102;53.548;9.926;2023-07-13T14:51:16;5.57;;;1.52;;
17953;SDS011;9102;53.548;9.926;2023-07-13T14:53:43;2.90;;;1.77;;
17953;SDS011;9102;53.548;9.926;2023-07-13T14:56:10;4.57;;;1.70;;
17953;SDS011;9102;53.548;9.926;2023-07-13T14:58:38;5.30;;;2.08;;
17953;SDS011;9102;53.548;9.926;2023-07-13T15:01:25;4.35;;;1.85;;
17953;SDS011;9102;53.548;9.926;2023-07-13T15:03:53;3.85;;;1.83;;
17953;SDS011;9102;53.548;9.926;2023-07-13T15:06:20;3.53;;;1.90;;
17953;SDS011;9102;53.548;9.926;2023-07-13T15:08:47;3.35;;;1.95;;
17953;SDS011;9102;53.548;9.926;2023-07-13T15:11:15;3.88;;;2.00;;
17953;SDS011;9102;53.548;9.926;2023-07-13T15:13:42;4.72;;;1.83;;
17953;SDS011;9102;53.548;9.926;2023-07-13T15:16:13;3.42;;;1.80;;
17953;SDS011;9102;53.548;9.926;2023-07-13T15:18:43;4.05;;;1.67;;
17953;SDS011;9102;53.548;9.926;2023-07-13T15:21:13;4.57;;;1.77;;
17953;SDS011;9102;53.548;9.926;2023-07-13T15:23:48;2.97;;;1.65;;
17953;SDS011;9102;53.548;9.926;2023-07-13T15:26:16;4.90;;;1.67;;
17953;SDS011;9102;53.548;9.926;2023-07-13T15:28:46;3.03;;;1.50;;